sensor_id;sensor_type;location;lat;lon;timestamp;P1;durP1;ratioP1;P2;durP2;ratioP2
25247;SDS011;13191;47.472;11.214;2023-07-20T00:00:45;4.15;;;2.58;;
25247;SDS011;13191;47.472;11.214;2023-07-20T00:03:11;6.40;;;2.47;;
25247;SDS011;13191;47.472;11.214;2023-07-20T00:05:42;3.35;;;2.13;;
25247;SDS011;13191;47.472;11.214;2023-07-20T00:08:08;4.60;;;2.00;;
25247;SDS011;13191;47.472;11.214;2023-07-20T00:10:33;6.65;;;2.72;;
25247;SDS011;13191;47.472;11.214;2023-07-20T00:12:59;5.32;;;2.30;;
25247;SDS011;13191;47.472;11.214;2023-07-20T00:15:24;6.25;;;2.13;;
25247;SDS011;13191;47.472;11.214;2023-07-20T00:17:50;8.32;;;3.05;;
25247;SDS011;13191;47.472;11.214;2023-07-20T00:20:16;4.72;;;2.35;;
25247;SDS011;13191;47.472;11.214;2023-07-20T00:22:42;8.07;;;2.70;;
25247;SDS011;13191;47.472;11.214;2023-07-20T00:25:08;4.55;;;2.38;;
25247;SDS011;13191;47.472;11.214;2023-07-20T00:27:36;5.30;;;2.47;;
25247;SDS011;13191;47.472;11.214;2023-07-20T00:30:02;5.15;;;2.40;;
25247;SDS011;13191;47.472;11.214;2023-07-20T00:32:29;4.30;;;2.50;;
25247;SDS011;13191;47.472;11.214;2023-07-20T00:34:54;10.68;;;2.60;;
25247;SDS011;13191;47.472;11.214;2023-07-20T00:37:20;7.10;;;2.50;;
25247;SDS011;13191;47.472;11.214;2023-07-20T00:39:45;4.90;;;2.70;;
25247;SDS011;13191;47.472;11.214;2023-07-20T00:42:11;4.05;;;2.53;;
25247;SDS011;13191;47.472;11.214;2023-07-20T00:44:36;5.05;;;2.42;;
25247;SDS011;13191;47.472;11.214;2023-07-20T00:47:02;7.05;;;2.47;;
25247;SDS011;13191;47.472;11.214;2023-07-20T00:49:28;4.75;;;2.55;;
25247;SDS011;13191;47.472;11.214;2023-07-20T00:51:53;4.93;;;2.70;;
25247;SDS011;13191;47.472;11.214;2023-07-20T00:54:19;4.78;;;2.38;;
25247;SDS011;13191;47.472;11.214;2023-07-20T00:56:45;6.72;;;3.28;;
25247;SDS011;13191;47.472;11.214;2023-07-20T00:59:11;5.25;;;2.65;;
25247;SDS011;13191;47.472;11.214;2023-07-20T01:01:36;9.52;;;2.42;;
25247;SDS011;13191;47.472;11.214;2023-07-20T01:04:02;4.10;;;2.40;;
25247;SDS011;13191;47.472;11.214;2023-07-20T01:09:19;5.07;;;2.90;;
25247;SDS011;13191;47.472;11.214;2023-07-20T01:11:54;5.85;;;2.80;;
25247;SDS011;13191;47.472;11.214;2023-07-20T01:14:25;5.45;;;2.75;;
25247;SDS011;13191;47.472;11.214;2023-07-20T01:16:51;5.18;;;2.72;;
25247;SDS011;13191;47.472;11.214;2023-07-20T01:19:19;5.28;;;2.60;;
25247;SDS011;13191;47.472;11.214;2023-07-20T01:21:48;5.20;;;2.53;;
25247;SDS011;13191;47.472;11.214;2023-07-20T01:27:36;4.68;;;2.45;;
25247;SDS011;13191;47.472;11.214;2023-07-20T01:33:09;4.85;;;2.75;;
25247;SDS011;13191;47.472;11.214;2023-07-20T01:38:07;4.05;;;2.28;;
25247;SDS011;13191;47.472;11.214;2023-07-20T01:40:34;8.73;;;2.90;;
25247;SDS011;13191;47.472;11.214;2023-07-20T01:43:00;7.38;;;2.47;;
25247;SDS011;13191;47.472;11.214;2023-07-20T01:45:27;7.72;;;2.88;;
25247;SDS011;13191;47.472;11.214;2023-07-20T01:47:52;5.05;;;2.75;;
25247;SDS011;13191;47.472;11.214;2023-07-20T01:50:18;4.68;;;2.45;;
25247;SDS011;13191;47.472;11.214;2023-07-20T01:52:43;5.32;;;2.45;;
25247;SDS011;13191;47.472;11.214;2023-07-20T01:55:09;5.82;;;2.47;;
25247;SDS011;13191;47.472;11.214;2023-07-20T01:57:34;5.75;;;2.25;;
25247;SDS011;13191;47.472;11.214;2023-07-20T02:00:00;4.45;;;2.42;;
25247;SDS011;13191;47.472;11.214;2023-07-20T02:02:26;7.03;;;2.80;;
25247;SDS011;13191;47.472;11.214;2023-07-20T02:04:53;5.97;;;2.50;;
25247;SDS011;13191;47.472;11.214;2023-07-20T02:07:18;4.57;;;2.72;;
25247;SDS011;13191;47.472;11.214;2023-07-20T02:09:44;4.32;;;2.58;;
25247;SDS011;13191;47.472;11.214;2023-07-20T02:12:09;7.63;;;2.85;;
25247;SDS011;13191;47.472;11.214;2023-07-20T02:14:35;5.47;;;2.30;;
25247;SDS011;13191;47.472;11.214;2023-07-20T02:17:00;5.05;;;2.55;;
25247;SDS011;13191;47.472;11.214;2023-07-20T02:19:27;7.18;;;3.25;;
25247;SDS011;13191;47.472;11.214;2023-07-20T02:21:53;4.40;;;2.45;;
25247;SDS011;13191;47.472;11.214;2023-07-20T02:24:19;6.32;;;2.60;;
25247;SDS011;13191;47.472;11.214;2023-07-20T02:26:44;5.65;;;2.67;;
25247;SDS011;13191;47.472;11.214;2023-07-20T02:29:10;6.25;;;3.25;;
25247;SDS011;13191;47.472;11.214;2023-07-20T02:31:38;8.35;;;2.85;;
25247;SDS011;13191;47.472;11.214;2023-07-20T02:34:04;7.10;;;2.58;;
25247;SDS011;13191;47.472;11.214;2023-07-20T02:36:30;4.25;;;2.60;;
25247;SDS011;13191;47.472;11.214;2023-07-20T02:38:57;8.52;;;2.55;;
25247;SDS011;13191;47.472;11.214;2023-07-20T02:41:23;5.32;;;2.50;;
25247;SDS011;13191;47.472;11.214;2023-07-20T02:43:49;5.03;;;2.22;;
25247;SDS011;13191;47.472;11.214;2023-07-20T02:46:14;3.80;;;2.25;;
25247;SDS011;13191;47.472;11.214;2023-07-20T02:48:40;8.88;;;2.35;;
25247;SDS011;13191;47.472;11.214;2023-07-20T02:51:05;4.63;;;2.30;;
25247;SDS011;13191;47.472;11.214;2023-07-20T02:53:32;9.55;;;2.40;;
25247;SDS011;13191;47.472;11.214;2023-07-20T02:55:58;4.72;;;2.60;;
25247;SDS011;13191;47.472;11.214;2023-07-20T02:58:23;4.22;;;2.15;;
25247;SDS011;13191;47.472;11.214;2023-07-20T03:00:49;4.45;;;2.45;;
25247;SDS011;13191;47.472;11.214;2023-07-20T03:03:15;3.72;;;2.40;;
25247;SDS011;13191;47.472;11.214;2023-07-20T03:05:41;5.85;;;2.30;;
25247;SDS011;13191;47.472;11.214;2023-07-20T03:08:07;6.18;;;2.38;;
25247;SDS011;13191;47.472;11.214;2023-07-20T03:10:32;5.28;;;2.42;;
25247;SDS011;13191;47.472;11.214;2023-07-20T03:13:03;4.20;;;2.03;;
25247;SDS011;13191;47.472;11.214;2023-07-20T03:15:28;4.75;;;2.38;;
25247;SDS011;13191;47.472;11.214;2023-07-20T03:17:54;5.85;;;2.50;;
25247;SDS011;13191;47.472;11.214;2023-07-20T03:20:19;6.13;;;2.60;;
25247;SDS011;13191;47.472;11.214;2023-07-20T03:22:45;9.90;;;3.80;;
25247;SDS011;13191;47.472;11.214;2023-07-20T03:25:11;4.72;;;2.05;;
25247;SDS011;13191;47.472;11.214;2023-07-20T03:27:36;6.07;;;2.33;;
25247;SDS011;13191;47.472;11.214;2023-07-20T03:30:02;6.88;;;2.00;;
25247;SDS011;13191;47.472;11.214;2023-07-20T03:32:28;3.30;;;2.03;;
25247;SDS011;13191;47.472;11.214;2023-07-20T03:34:53;3.78;;;1.98;;
25247;SDS011;13191;47.472;11.214;2023-07-20T03:37:19;4.07;;;1.85;;
25247;SDS011;13191;47.472;11.214;2023-07-20T03:39:44;4.35;;;2.28;;
25247;SDS011;13191;47.472;11.214;2023-07-20T03:42:10;4.03;;;1.80;;
25247;SDS011;13191;47.472;11.214;2023-07-20T03:44:35;5.28;;;2.13;;
25247;SDS011;13191;47.472;11.214;2023-07-20T03:47:01;3.38;;;1.90;;
25247;SDS011;13191;47.472;11.214;2023-07-20T03:49:28;2.95;;;1.77;;
25247;SDS011;13191;47.472;11.214;2023-07-20T03:51:54;3.47;;;1.85;;
25247;SDS011;13191;47.472;11.214;2023-07-20T03:54:20;4.85;;;2.10;;
25247;SDS011;13191;47.472;11.214;2023-07-20T03:56:46;3.83;;;2.15;;
25247;SDS011;13191;47.472;11.214;2023-07-20T03:59:11;6.63;;;2.13;;
25247;SDS011;13191;47.472;11.214;2023-07-20T04:01:37;4.80;;;2.00;;
25247;SDS011;13191;47.472;11.214;2023-07-20T04:04:06;3.53;;;1.88;;
25247;SDS011;13191;47.472;11.214;2023-07-20T04:06:32;5.65;;;2.50;;
25247;SDS011;13191;47.472;11.214;2023-07-20T04:08:58;4.18;;;1.90;;
25247;SDS011;13191;47.472;11.214;2023-07-20T04:11:24;4.68;;;2.40;;
25247;SDS011;13191;47.472;11.214;2023-07-20T04:13:49;4.60;;;2.05;;
25247;SDS011;13191;47.472;11.214;2023-07-20T04:16:15;5.68;;;1.90;;
25247;SDS011;13191;47.472;11.214;2023-07-20T04:18:40;4.57;;;2.20;;
25247;SDS011;13191;47.472;11.214;2023-07-20T04:21:07;3.63;;;1.63;;
25247;SDS011;13191;47.472;11.214;2023-07-20T04:23:33;3.40;;;1.95;;
25247;SDS011;13191;47.472;11.214;2023-07-20T04:26:00;3.80;;;2.05;;
25247;SDS011;13191;47.472;11.214;2023-07-20T04:28:25;3.70;;;2.00;;
25247;SDS011;13191;47.472;11.214;2023-07-20T04:30:52;4.82;;;2.22;;
25247;SDS011;13191;47.472;11.214;2023-07-20T04:33:17;3.58;;;1.80;;
25247;SDS011;13191;47.472;11.214;2023-07-20T04:35:53;5.13;;;2.35;;
25247;SDS011;13191;47.472;11.214;2023-07-20T04:38:19;4.00;;;1.65;;
25247;SDS011;13191;47.472;11.214;2023-07-20T04:40:45;3.40;;;1.80;;
25247;SDS011;13191;47.472;11.214;2023-07-20T04:43:13;3.63;;;2.00;;
25247;SDS011;13191;47.472;11.214;2023-07-20T04:45:42;4.35;;;1.95;;
25247;SDS011;13191;47.472;11.214;2023-07-20T04:48:12;4.93;;;1.98;;
25247;SDS011;13191;47.472;11.214;2023-07-20T04:50:40;4.45;;;2.15;;
25247;SDS011;13191;47.472;11.214;2023-07-20T04:53:08;3.58;;;2.15;;
25247;SDS011;13191;47.472;11.214;2023-07-20T04:55:35;6.63;;;2.55;;
25247;SDS011;13191;47.472;11.214;2023-07-20T04:58:02;4.82;;;2.00;;
25247;SDS011;13191;47.472;11.214;2023-07-20T05:00:28;4.13;;;2.35;;
25247;SDS011;13191;47.472;11.214;2023-07-20T05:02:54;3.22;;;1.50;;
25247;SDS011;13191;47.472;11.214;2023-07-20T05:05:20;4.82;;;1.52;;
25247;SDS011;13191;47.472;11.214;2023-07-20T05:07:45;4.57;;;2.00;;
25247;SDS011;13191;47.472;11.214;2023-07-20T05:10:11;3.75;;;1.80;;
25247;SDS011;13191;47.472;11.214;2023-07-20T05:12:36;5.10;;;2.17;;
25247;SDS011;13191;47.472;11.214;2023-07-20T05:15:02;6.18;;;2.30;;
25247;SDS011;13191;47.472;11.214;2023-07-20T05:17:28;3.92;;;1.70;;
25247;SDS011;13191;47.472;11.214;2023-07-20T05:19:54;3.50;;;1.80;;
25247;SDS011;13191;47.472;11.214;2023-07-20T05:22:20;4.88;;;2.10;;
25247;SDS011;13191;47.472;11.214;2023-07-20T05:24:45;5.68;;;2.00;;
25247;SDS011;13191;47.472;11.214;2023-07-20T05:27:11;4.15;;;2.10;;
25247;SDS011;13191;47.472;11.214;2023-07-20T05:29:37;4.55;;;2.10;;
25247;SDS011;13191;47.472;11.214;2023-07-20T05:32:02;4.93;;;2.25;;
25247;SDS011;13191;47.472;11.214;2023-07-20T05:34:28;4.32;;;2.28;;
25247;SDS011;13191;47.472;11.214;2023-07-20T05:36:54;2.80;;;1.65;;
25247;SDS011;13191;47.472;11.214;2023-07-20T05:39:20;4.25;;;2.17;;
25247;SDS011;13191;47.472;11.214;2023-07-20T05:41:46;2.88;;;1.90;;
25247;SDS011;13191;47.472;11.214;2023-07-20T05:44:11;3.60;;;1.88;;
25247;SDS011;13191;47.472;11.214;2023-07-20T05:46:37;5.10;;;2.35;;
25247;SDS011;13191;47.472;11.214;2023-07-20T05:49:02;3.55;;;1.73;;
25247;SDS011;13191;47.472;11.214;2023-07-20T05:51:28;6.22;;;1.92;;
25247;SDS011;13191;47.472;11.214;2023-07-20T05:53:53;7.10;;;2.10;;
25247;SDS011;13191;47.472;11.214;2023-07-20T05:56:19;5.22;;;2.20;;
25247;SDS011;13191;47.472;11.214;2023-07-20T05:58:45;4.25;;;2.33;;
25247;SDS011;13191;47.472;11.214;2023-07-20T06:01:10;5.65;;;2.50;;
25247;SDS011;13191;47.472;11.214;2023-07-20T06:03:36;3.90;;;2.28;;
25247;SDS011;13191;47.472;11.214;2023-07-20T06:06:02;5.38;;;2.00;;
25247;SDS011;13191;47.472;11.214;2023-07-20T06:08:30;8.25;;;2.45;;
25247;SDS011;13191;47.472;11.214;2023-07-20T06:10:56;7.45;;;2.72;;
25247;SDS011;13191;47.472;11.214;2023-07-20T06:13:22;3.55;;;2.08;;
25247;SDS011;13191;47.472;11.214;2023-07-20T06:15:49;3.15;;;2.05;;
25247;SDS011;13191;47.472;11.214;2023-07-20T06:18:14;4.15;;;1.70;;
25247;SDS011;13191;47.472;11.214;2023-07-20T06:20:40;4.28;;;2.10;;
25247;SDS011;13191;47.472;11.214;2023-07-20T06:23:06;3.45;;;2.00;;
25247;SDS011;13191;47.472;11.214;2023-07-20T06:25:31;5.95;;;2.35;;
25247;SDS011;13191;47.472;11.214;2023-07-20T06:27:57;4.28;;;2.08;;
25247;SDS011;13191;47.472;11.214;2023-07-20T06:30:22;6.25;;;1.95;;
25247;SDS011;13191;47.472;11.214;2023-07-20T06:32:49;5.03;;;2.25;;
25247;SDS011;13191;47.472;11.214;2023-07-20T06:35:15;5.18;;;2.35;;
25247;SDS011;13191;47.472;11.214;2023-07-20T06:37:41;3.75;;;1.75;;
25247;SDS011;13191;47.472;11.214;2023-07-20T06:40:07;5.15;;;2.30;;
25247;SDS011;13191;47.472;11.214;2023-07-20T06:42:34;5.35;;;2.47;;
25247;SDS011;13191;47.472;11.214;2023-07-20T06:45:00;2.72;;;1.60;;
25247;SDS011;13191;47.472;11.214;2023-07-20T06:47:25;6.25;;;2.28;;
25247;SDS011;13191;47.472;11.214;2023-07-20T06:49:51;3.53;;;1.90;;
25247;SDS011;13191;47.472;11.214;2023-07-20T06:52:17;7.72;;;1.92;;
25247;SDS011;13191;47.472;11.214;2023-07-20T06:54:43;4.60;;;1.90;;
25247;SDS011;13191;47.472;11.214;2023-07-20T06:57:08;3.15;;;1.80;;
25247;SDS011;13191;47.472;11.214;2023-07-20T06:59:34;4.68;;;1.83;;
25247;SDS011;13191;47.472;11.214;2023-07-20T07:01:59;4.63;;;2.00;;
25247;SDS011;13191;47.472;11.214;2023-07-20T07:04:25;3.55;;;1.55;;
25247;SDS011;13191;47.472;11.214;2023-07-20T07:06:52;4.50;;;1.75;;
25247;SDS011;13191;47.472;11.214;2023-07-20T07:09:17;6.20;;;1.80;;
25247;SDS011;13191;47.472;11.214;2023-07-20T07:11:43;7.97;;;1.95;;
25247;SDS011;13191;47.472;11.214;2023-07-20T07:14:09;3.75;;;2.20;;
25247;SDS011;13191;47.472;11.214;2023-07-20T07:16:37;3.42;;;1.63;;
25247;SDS011;13191;47.472;11.214;2023-07-20T07:19:03;4.80;;;2.28;;
25247;SDS011;13191;47.472;11.214;2023-07-20T07:21:30;3.30;;;1.80;;
25247;SDS011;13191;47.472;11.214;2023-07-20T07:23:56;4.55;;;2.05;;
25247;SDS011;13191;47.472;11.214;2023-07-20T07:26:22;4.50;;;1.60;;
25247;SDS011;13191;47.472;11.214;2023-07-20T07:28:49;9.50;;;1.92;;
25247;SDS011;13191;47.472;11.214;2023-07-20T07:31:14;7.22;;;1.77;;
25247;SDS011;13191;47.472;11.214;2023-07-20T07:33:40;3.70;;;1.80;;
25247;SDS011;13191;47.472;11.214;2023-07-20T07:36:05;6.20;;;2.03;;
25247;SDS011;13191;47.472;11.214;2023-07-20T07:38:31;8.85;;;2.30;;
25247;SDS011;13191;47.472;11.214;2023-07-20T07:40:57;2.95;;;1.70;;
25247;SDS011;13191;47.472;11.214;2023-07-20T07:43:23;6.43;;;1.92;;
25247;SDS011;13191;47.472;11.214;2023-07-20T07:45:49;3.25;;;1.60;;
25247;SDS011;13191;47.472;11.214;2023-07-20T07:48:15;3.45;;;2.05;;
25247;SDS011;13191;47.472;11.214;2023-07-20T07:50:42;2.95;;;1.70;;
25247;SDS011;13191;47.472;11.214;2023-07-20T07:53:07;3.67;;;1.80;;
25247;SDS011;13191;47.472;11.214;2023-07-20T07:55:33;3.17;;;1.77;;
25247;SDS011;13191;47.472;11.214;2023-07-20T07:58:00;11.43;;;2.05;;
25247;SDS011;13191;47.472;11.214;2023-07-20T08:00:26;2.83;;;1.65;;
25247;SDS011;13191;47.472;11.214;2023-07-20T08:02:51;3.63;;;2.03;;
25247;SDS011;13191;47.472;11.214;2023-07-20T08:05:17;8.07;;;1.77;;
25247;SDS011;13191;47.472;11.214;2023-07-20T08:07:43;6.97;;;1.73;;
25247;SDS011;13191;47.472;11.214;2023-07-20T08:10:08;3.78;;;1.70;;
25247;SDS011;13191;47.472;11.214;2023-07-20T08:12:34;5.03;;;1.98;;
25247;SDS011;13191;47.472;11.214;2023-07-20T08:15:00;3.65;;;2.05;;
25247;SDS011;13191;47.472;11.214;2023-07-20T08:17:26;2.65;;;1.70;;
25247;SDS011;13191;47.472;11.214;2023-07-20T08:19:51;4.70;;;2.10;;
25247;SDS011;13191;47.472;11.214;2023-07-20T08:22:17;4.03;;;1.70;;
25247;SDS011;13191;47.472;11.214;2023-07-20T08:24:43;2.97;;;1.75;;
25247;SDS011;13191;47.472;11.214;2023-07-20T08:27:09;4.15;;;2.05;;
25247;SDS011;13191;47.472;11.214;2023-07-20T08:29:35;3.65;;;2.15;;
25247;SDS011;13191;47.472;11.214;2023-07-20T08:32:02;4.57;;;1.60;;
25247;SDS011;13191;47.472;11.214;2023-07-20T08:34:29;5.40;;;1.58;;
25247;SDS011;13191;47.472;11.214;2023-07-20T08:36:54;3.88;;;1.60;;
25247;SDS011;13191;47.472;11.214;2023-07-20T08:39:21;2.90;;;1.60;;
25247;SDS011;13191;47.472;11.214;2023-07-20T08:41:47;2.80;;;1.52;;
25247;SDS011;13191;47.472;11.214;2023-07-20T08:44:13;7.88;;;1.60;;
25247;SDS011;13191;47.472;11.214;2023-07-20T08:46:40;3.88;;;2.00;;
25247;SDS011;13191;47.472;11.214;2023-07-20T08:49:06;4.25;;;1.77;;
25247;SDS011;13191;47.472;11.214;2023-07-20T08:51:32;8.10;;;2.20;;
25247;SDS011;13191;47.472;11.214;2023-07-20T08:53:59;3.10;;;1.80;;
25247;SDS011;13191;47.472;11.214;2023-07-20T08:56:25;3.83;;;1.70;;
25247;SDS011;13191;47.472;11.214;2023-07-20T08:58:54;4.35;;;1.70;;
25247;SDS011;13191;47.472;11.214;2023-07-20T09:01:21;3.10;;;1.80;;
25247;SDS011;13191;47.472;11.214;2023-07-20T09:03:47;3.80;;;2.00;;
25247;SDS011;13191;47.472;11.214;2023-07-20T09:06:14;3.92;;;1.85;;
25247;SDS011;13191;47.472;11.214;2023-07-20T09:08:41;6.43;;;1.48;;
25247;SDS011;13191;47.472;11.214;2023-07-20T09:11:07;6.15;;;1.92;;
25247;SDS011;13191;47.472;11.214;2023-07-20T09:13:37;8.63;;;1.80;;
25247;SDS011;13191;47.472;11.214;2023-07-20T09:16:03;4.20;;;1.63;;
25247;SDS011;13191;47.472;11.214;2023-07-20T09:18:30;8.63;;;2.00;;
25247;SDS011;13191;47.472;11.214;2023-07-20T09:20:57;2.75;;;1.42;;
25247;SDS011;13191;47.472;11.214;2023-07-20T09:23:31;4.65;;;1.80;;
25247;SDS011;13191;47.472;11.214;2023-07-20T09:26:01;3.15;;;1.35;;
25247;SDS011;13191;47.472;11.214;2023-07-20T09:28:42;4.88;;;1.75;;
25247;SDS011;13191;47.472;11.214;2023-07-20T09:31:18;16.15;;;2.72;;
25247;SDS011;13191;47.472;11.214;2023-07-20T09:33:45;5.30;;;1.75;;
25247;SDS011;13191;47.472;11.214;2023-07-20T09:36:11;4.57;;;1.52;;
25247;SDS011;13191;47.472;11.214;2023-07-20T09:38:37;2.92;;;1.65;;
25247;SDS011;13191;47.472;11.214;2023-07-20T09:41:06;4.88;;;1.98;;
25247;SDS011;13191;47.472;11.214;2023-07-20T09:43:36;4.47;;;1.40;;
25247;SDS011;13191;47.472;11.214;2023-07-20T09:46:02;2.47;;;1.65;;
25247;SDS011;13191;47.472;11.214;2023-07-20T09:48:27;3.70;;;1.77;;
25247;SDS011;13191;47.472;11.214;2023-07-20T09:50:55;3.50;;;1.40;;
25247;SDS011;13191;47.472;11.214;2023-07-20T09:53:24;2.95;;;1.60;;
25247;SDS011;13191;47.472;11.214;2023-07-20T09:55:51;4.18;;;1.63;;
25247;SDS011;13191;47.472;11.214;2023-07-20T09:58:17;7.68;;;1.70;;
25247;SDS011;13191;47.472;11.214;2023-07-20T10:00:44;6.80;;;1.73;;
25247;SDS011;13191;47.472;11.214;2023-07-20T10:03:18;2.88;;;1.58;;
25247;SDS011;13191;47.472;11.214;2023-07-20T10:05:47;4.25;;;2.30;;
25247;SDS011;13191;47.472;11.214;2023-07-20T10:08:18;3.35;;;2.10;;
25247;SDS011;13191;47.472;11.214;2023-07-20T10:10:48;5.18;;;2.05;;
25247;SDS011;13191;47.472;11.214;2023-07-20T10:13:17;7.35;;;1.92;;
25247;SDS011;13191;47.472;11.214;2023-07-20T10:15:46;3.38;;;1.80;;
25247;SDS011;13191;47.472;11.214;2023-07-20T10:18:14;3.75;;;1.92;;
25247;SDS011;13191;47.472;11.214;2023-07-20T10:20:48;3.15;;;1.63;;
25247;SDS011;13191;47.472;11.214;2023-07-20T10:23:16;2.75;;;1.67;;
25247;SDS011;13191;47.472;11.214;2023-07-20T10:25:42;5.40;;;2.55;;
25247;SDS011;13191;47.472;11.214;2023-07-20T10:28:09;3.10;;;1.80;;
25247;SDS011;13191;47.472;11.214;2023-07-20T10:30:36;7.78;;;1.85;;
25247;SDS011;13191;47.472;11.214;2023-07-20T10:33:03;3.42;;;1.70;;
25247;SDS011;13191;47.472;11.214;2023-07-20T10:35:30;7.15;;;2.08;;
25247;SDS011;13191;47.472;11.214;2023-07-20T10:38:02;3.92;;;1.58;;
25247;SDS011;13191;47.472;11.214;2023-07-20T10:40:29;8.90;;;1.77;;
25247;SDS011;13191;47.472;11.214;2023-07-20T10:43:00;6.78;;;1.98;;
25247;SDS011;13191;47.472;11.214;2023-07-20T10:45:49;3.42;;;1.83;;
25247;SDS011;13191;47.472;11.214;2023-07-20T10:51:22;5.10;;;1.90;;
25247;SDS011;13191;47.472;11.214;2023-07-20T10:53:48;4.00;;;1.77;;
25247;SDS011;13191;47.472;11.214;2023-07-20T10:56:19;2.85;;;1.73;;
25247;SDS011;13191;47.472;11.214;2023-07-20T10:58:47;7.45;;;1.80;;
25247;SDS011;13191;47.472;11.214;2023-07-20T11:01:13;4.28;;;1.70;;
25247;SDS011;13191;47.472;11.214;2023-07-20T11:03:40;3.53;;;1.75;;
25247;SDS011;13191;47.472;11.214;2023-07-20T11:11:43;3.35;;;1.70;;
25247;SDS011;13191;47.472;11.214;2023-07-20T11:14:20;3.05;;;1.65;;
25247;SDS011;13191;47.472;11.214;2023-07-20T11:16:50;2.80;;;1.67;;
25247;SDS011;13191;47.472;11.214;2023-07-20T11:21:52;5.55;;;2.03;;
25247;SDS011;13191;47.472;11.214;2023-07-20T11:24:22;2.72;;;1.98;;
25247;SDS011;13191;47.472;11.214;2023-07-20T11:26:49;8.30;;;1.95;;
25247;SDS011;13191;47.472;11.214;2023-07-20T11:29:16;3.28;;;1.50;;
25247;SDS011;13191;47.472;11.214;2023-07-20T11:31:43;3.42;;;1.85;;
25247;SDS011;13191;47.472;11.214;2023-07-20T11:34:10;4.45;;;1.70;;
25247;SDS011;13191;47.472;11.214;2023-07-20T11:36:38;4.25;;;1.60;;
25247;SDS011;13191;47.472;11.214;2023-07-20T11:39:12;2.47;;;1.30;;
25247;SDS011;13191;47.472;11.214;2023-07-20T11:41:49;3.65;;;1.70;;
25247;SDS011;13191;47.472;11.214;2023-07-20T11:44:16;2.47;;;1.52;;
25247;SDS011;13191;47.472;11.214;2023-07-20T11:46:43;5.97;;;1.83;;
25247;SDS011;13191;47.472;11.214;2023-07-20T11:49:11;6.03;;;1.70;;
25247;SDS011;13191;47.472;11.214;2023-07-20T11:51:37;4.38;;;1.50;;
25247;SDS011;13191;47.472;11.214;2023-07-20T11:54:05;2.92;;;1.35;;
25247;SDS011;13191;47.472;11.214;2023-07-20T11:56:32;2.95;;;1.70;;
25247;SDS011;13191;47.472;11.214;2023-07-20T11:58:58;4.68;;;1.75;;
25247;SDS011;13191;47.472;11.214;2023-07-20T12:01:26;2.78;;;1.60;;
25247;SDS011;13191;47.472;11.214;2023-07-20T12:04:00;4.85;;;1.65;;
25247;SDS011;13191;47.472;11.214;2023-07-20T12:06:27;3.50;;;1.33;;
25247;SDS011;13191;47.472;11.214;2023-07-20T12:08:54;4.32;;;1.50;;
25247;SDS011;13191;47.472;11.214;2023-07-20T12:11:37;2.35;;;1.20;;
25247;SDS011;13191;47.472;11.214;2023-07-20T12:14:04;4.55;;;1.38;;
25247;SDS011;13191;47.472;11.214;2023-07-20T12:16:32;6.78;;;1.80;;
25247;SDS011;13191;47.472;11.214;2023-07-20T12:19:01;5.20;;;1.70;;
25247;SDS011;13191;47.472;11.214;2023-07-20T12:21:46;8.95;;;1.85;;
25247;SDS011;13191;47.472;11.214;2023-07-20T12:24:14;3.65;;;1.48;;
25247;SDS011;13191;47.472;11.214;2023-07-20T12:26:42;6.47;;;1.33;;
25247;SDS011;13191;47.472;11.214;2023-07-20T12:29:08;3.75;;;1.42;;
25247;SDS011;13191;47.472;11.214;2023-07-20T12:31:34;4.68;;;1.63;;
25247;SDS011;13191;47.472;11.214;2023-07-20T12:34:02;3.45;;;1.33;;
25247;SDS011;13191;47.472;11.214;2023-07-20T12:36:28;3.30;;;1.65;;
25247;SDS011;13191;47.472;11.214;2023-07-20T12:38:54;3.40;;;1.52;;
25247;SDS011;13191;47.472;11.214;2023-07-20T12:41:19;3.38;;;1.20;;
25247;SDS011;13191;47.472;11.214;2023-07-20T12:43:45;4.10;;;1.40;;
25247;SDS011;13191;47.472;11.214;2023-07-20T12:46:11;2.65;;;1.30;;
25247;SDS011;13191;47.472;11.214;2023-07-20T12:48:38;2.90;;;1.42;;
25247;SDS011;13191;47.472;11.214;2023-07-20T12:51:06;2.08;;;1.33;;
25247;SDS011;13191;47.472;11.214;2023-07-20T12:53:32;2.40;;;1.45;;
25247;SDS011;13191;47.472;11.214;2023-07-20T12:55:58;3.28;;;1.60;;
25247;SDS011;13191;47.472;11.214;2023-07-20T12:58:25;3.58;;;1.80;;
25247;SDS011;13191;47.472;11.214;2023-07-20T13:00:50;5.25;;;1.52;;
25247;SDS011;13191;47.472;11.214;2023-07-20T13:03:16;7.10;;;1.58;;
25247;SDS011;13191;47.472;11.214;2023-07-20T13:05:43;6.45;;;1.60;;
25247;SDS011;13191;47.472;11.214;2023-07-20T13:08:09;3.22;;;1.45;;
25247;SDS011;13191;47.472;11.214;2023-07-20T13:10:38;4.82;;;1.38;;
25247;SDS011;13191;47.472;11.214;2023-07-20T13:15:35;3.20;;;1.48;;
25247;SDS011;13191;47.472;11.214;2023-07-20T13:18:06;3.47;;;1.63;;
25247;SDS011;13191;47.472;11.214;2023-07-20T13:20:32;4.30;;;1.35;;
25247;SDS011;13191;47.472;11.214;2023-07-20T13:22:58;2.47;;;1.30;;
25247;SDS011;13191;47.472;11.214;2023-07-20T13:25:24;4.75;;;1.80;;
25247;SDS011;13191;47.472;11.214;2023-07-20T13:27:49;4.30;;;1.45;;
25247;SDS011;13191;47.472;11.214;2023-07-20T13:30:15;8.20;;;2.22;;
25247;SDS011;13191;47.472;11.214;2023-07-20T13:32:44;4.70;;;1.90;;
25247;SDS011;13191;47.472;11.214;2023-07-20T13:35:13;3.45;;;1.60;;
25247;SDS011;13191;47.472;11.214;2023-07-20T13:37:39;4.65;;;1.20;;
25247;SDS011;13191;47.472;11.214;2023-07-20T13:40:05;3.75;;;1.45;;
25247;SDS011;13191;47.472;11.214;2023-07-20T13:42:32;3.20;;;1.20;;
25247;SDS011;13191;47.472;11.214;2023-07-20T13:44:58;3.88;;;1.50;;
25247;SDS011;13191;47.472;11.214;2023-07-20T13:47:24;2.88;;;1.70;;
25247;SDS011;13191;47.472;11.214;2023-07-20T13:49:51;7.80;;;2.65;;
25247;SDS011;13191;47.472;11.214;2023-07-20T13:52:16;5.45;;;1.98;;
25247;SDS011;13191;47.472;11.214;2023-07-20T13:54:42;5.80;;;1.73;;
25247;SDS011;13191;47.472;11.214;2023-07-20T13:57:07;4.13;;;1.67;;
25247;SDS011;13191;47.472;11.214;2023-07-20T13:59:33;3.78;;;1.60;;
25247;SDS011;13191;47.472;11.214;2023-07-20T14:01:59;6.47;;;1.65;;
25247;SDS011;13191;47.472;11.214;2023-07-20T14:04:24;4.55;;;1.60;;
25247;SDS011;13191;47.472;11.214;2023-07-20T14:06:50;9.63;;;1.48;;
25247;SDS011;13191;47.472;11.214;2023-07-20T14:09:16;3.25;;;1.50;;
25247;SDS011;13191;47.472;11.214;2023-07-20T14:11:42;4.72;;;1.77;;
25247;SDS011;13191;47.472;11.214;2023-07-20T14:14:07;2.58;;;1.33;;
25247;SDS011;13191;47.472;11.214;2023-07-20T14:16:33;3.17;;;1.77;;
25247;SDS011;13191;47.472;11.214;2023-07-20T14:18:58;5.10;;;1.50;;
25247;SDS011;13191;47.472;11.214;2023-07-20T14:21:24;5.38;;;1.30;;
25247;SDS011;13191;47.472;11.214;2023-07-20T14:23:50;3.63;;;1.80;;
25247;SDS011;13191;47.472;11.214;2023-07-20T14:26:22;4.13;;;1.80;;
25247;SDS011;13191;47.472;11.214;2023-07-20T14:28:48;4.97;;;1.95;;
25247;SDS011;13191;47.472;11.214;2023-07-20T14:31:14;3.58;;;1.48;;
25247;SDS011;13191;47.472;11.214;2023-07-20T14:33:40;4.10;;;1.52;;
25247;SDS011;13191;47.472;11.214;2023-07-20T14:36:06;7.60;;;1.90;;
25247;SDS011;13191;47.472;11.214;2023-07-20T14:38:34;4.65;;;1.88;;
25247;SDS011;13191;47.472;11.214;2023-07-20T14:41:00;5.10;;;1.73;;
25247;SDS011;13191;47.472;11.214;2023-07-20T14:43:26;5.60;;;1.65;;
25247;SDS011;13191;47.472;11.214;2023-07-20T14:45:53;7.82;;;1.52;;
25247;SDS011;13191;47.472;11.214;2023-07-20T14:48:20;6.82;;;1.45;;
25247;SDS011;13191;47.472;11.214;2023-07-20T14:50:46;5.18;;;1.85;;
25247;SDS011;13191;47.472;11.214;2023-07-20T14:53:12;9.13;;;1.85;;
25247;SDS011;13191;47.472;11.214;2023-07-20T14:55:39;2.75;;;1.48;;